Terminal Aerodrome Forecast
Issued by NWS Green Bay, WI

Home | Current Version | Previous Version | Graphics & Text | Print | Product List | Glossary On
Versions: 1 2 3 4 5 6 7 8 9 10 11 12 13 14 15 16 17 18 19 20 21 22 23 24 25 26 27 28
000
FTUS43 KGRB 260700 AAA
TAFGRB
TAF AMD
KGRB 260729Z 2607/2706 27006KT P6SM SCT020 BKN035
     FM261000 29006KT P6SM VCSH SCT020 BKN035
     FM261600 29009G14KT P6SM SCT040 SCT250
     FM270200 32003KT P6SM BKN150=

USA.gov is the U.S. government's official web portal to all federal, state and local government web resources and services.